Time;durP1;ratioP1;P1;durP2;ratioP2;P2;SDS_P1;SDS_P2;PMS_P1;PMS_P2;Temp;Humidity;BMP_temperature;BMP_pressure;BME280_temperature;BME280_humidity;BME280_pressure;Samples;Min_cycle;Max_cycle;Signal;HPM_P1;HPM_P2
2023/12/15 00:00:13;;;;;;;6.30;4.32;;;5.30;69.30;;;;;;5018366;28;20025;-75
2023/12/15 00:02:39;;;;;;;4.97;4.38;;;5.20;69.20;;;;;;5036144;28;20108;-75
2023/12/15 00:05:05;;;;;;;6.00;4.53;;;5.30;69.30;;;;;;5017595;28;20105;-75
2023/12/15 00:07:31;;;;;;;5.78;4.47;;;5.30;69.20;;;;;;5018094;28;20029;-75
2023/12/15 00:09:57;;;;;;;4.88;4.10;;;5.20;69.10;;;;;;5017884;28;20459;-75
2023/12/15 00:12:23;;;;;;;6.32;5.00;;;5.20;69.10;;;;;;5017725;28;20072;-75
2023/12/15 00:14:48;;;;;;;5.20;4.28;;;5.20;69.10;;;;;;5018437;28;20398;-75
2023/12/15 00:17:14;;;;;;;6.10;4.72;;;5.20;69.10;;;;;;5018388;28;20029;-76
2023/12/15 00:19:40;;;;;;;7.03;4.47;;;5.10;69.00;;;;;;5035629;28;20069;-75
2023/12/15 00:22:06;;;;;;;4.68;4.18;;;5.10;69.00;;;;;;5017704;28;20029;-74
2023/12/15 00:24:32;;;;;;;5.65;4.22;;;5.10;69.00;;;;;;5035352;28;20119;-75
2023/12/15 00:26:58;;;;;;;5.35;4.22;;;5.10;69.00;;;;;;5017681;28;20467;-75
2023/12/15 00:29:25;;;;;;;5.22;4.18;;;5.10;68.80;;;;;;5017407;28;20044;-75
2023/12/15 00:31:51;;;;;;;5.68;4.60;;;5.00;68.80;;;;;;5017944;28;20083;-75
2023/12/15 00:34:17;;;;;;;4.88;4.20;;;5.00;68.80;;;;;;5035037;28;20037;-76
2023/12/15 00:36:43;;;;;;;4.82;4.10;;;5.10;68.90;;;;;;5035170;28;20119;-75
2023/12/15 00:39:09;;;;;;;6.90;4.72;;;5.00;69.40;;;;;;5035357;28;20029;-75
2023/12/15 00:41:35;;;;;;;5.50;4.25;;;5.00;68.70;;;;;;5017397;28;20032;-76
2023/12/15 00:44:03;;;;;;;6.22;4.50;;;5.00;68.70;;;;;;5035590;28;20057;-76
2023/12/15 00:46:29;;;;;;;6.90;4.72;;;5.00;68.70;;;;;;5035655;28;20120;-77
2023/12/15 00:48:54;;;;;;;5.90;4.43;;;5.00;68.70;;;;;;5035904;28;20135;-77
2023/12/15 00:51:20;;;;;;;5.25;4.43;;;5.00;68.60;;;;;;5017536;28;20032;-75
2023/12/15 00:53:46;;;;;;;4.88;4.30;;;5.00;68.50;;;;;;5016922;28;20088;-75
2023/12/15 00:56:12;;;;;;;4.85;4.07;;;5.00;68.60;;;;;;5033643;28;20120;-77
2023/12/15 00:58:38;;;;;;;6.68;4.25;;;5.00;68.50;;;;;;5017261;28;20040;-75
2023/12/15 01:01:04;;;;;;;5.65;4.68;;;5.00;68.30;;;;;;5033621;28;20033;-74
2023/12/15 01:03:30;;;;;;;5.60;4.30;;;5.00;68.30;;;;;;5017471;28;20068;-75
2023/12/15 01:05:56;;;;;;;5.07;4.20;;;5.00;68.20;;;;;;5016801;28;20033;-75
2023/12/15 01:08:22;;;;;;;5.43;4.55;;;5.00;68.20;;;;;;5044158;28;20059;-75
2023/12/15 01:10:48;;;;;;;6.32;4.20;;;5.00;68.20;;;;;;5017808;28;20384;-75
2023/12/15 01:13:15;;;;;;;5.82;4.18;;;4.90;68.20;;;;;;5016985;28;20029;-75
2023/12/15 01:15:41;;;;;;;5.63;4.60;;;4.90;68.10;;;;;;5013610;28;20049;-76
2023/12/15 01:18:06;;;;;;;4.95;3.97;;;5.00;68.00;;;;;;5017324;28;20387;-75
2023/12/15 01:20:32;;;;;;;5.50;4.22;;;4.90;67.90;;;;;;5024987;28;20038;-75
2023/12/15 01:22:58;;;;;;;7.22;4.88;;;4.90;67.80;;;;;;5016946;28;20021;-76
2023/12/15 01:25:24;;;;;;;7.10;4.93;;;4.90;67.90;;;;;;5016482;28;20030;-75
2023/12/15 01:27:50;;;;;;;6.75;4.20;;;4.90;67.90;;;;;;5016124;28;20072;-74
2023/12/15 01:30:16;;;;;;;4.93;3.92;;;4.90;67.80;;;;;;5016918;28;20061;-75
2023/12/15 01:32:42;;;;;;;4.93;3.88;;;4.90;67.70;;;;;;5032241;28;20463;-75
2023/12/15 01:35:08;;;;;;;5.85;4.68;;;4.90;67.70;;;;;;5016335;28;20070;-75
2023/12/15 01:37:34;;;;;;;5.65;4.20;;;4.80;67.70;;;;;;5033474;28;20075;-75
2023/12/15 01:40:00;;;;;;;6.53;4.40;;;4.80;67.60;;;;;;5016349;28;20025;-76
2023/12/15 01:42:26;;;;;;;6.50;4.85;;;4.80;67.60;;;;;;5013595;28;20472;-76
2023/12/15 01:44:53;;;;;;;5.78;3.75;;;4.80;67.60;;;;;;5031691;28;20471;-76
2023/12/15 01:47:20;;;;;;;6.80;4.18;;;4.80;67.50;;;;;;5016699;28;20071;-77
2023/12/15 01:49:46;;;;;;;6.00;4.22;;;4.90;67.50;;;;;;5013572;28;20029;-75
2023/12/15 01:52:12;;;;;;;6.60;4.60;;;4.90;67.50;;;;;;5033552;28;20029;-75
2023/12/15 01:54:38;;;;;;;5.15;3.90;;;4.90;67.50;;;;;;5034141;28;20068;-75
2023/12/15 01:57:06;;;;;;;6.28;4.03;;;4.90;67.40;;;;;;5016558;28;20061;-75
2023/12/15 01:59:45;;;;;;;5.28;4.47;;;4.90;67.30;;;;;;5044439;28;20026;-75
2023/12/15 02:02:11;;;;;;;5.57;4.63;;;4.90;67.20;;;;;;5016105;28;20065;-74
2023/12/15 02:04:38;;;;;;;6.78;4.72;;;4.90;67.30;;;;;;5014742;28;20080;-75
2023/12/15 02:07:04;;;;;;;6.25;4.88;;;4.90;67.30;;;;;;5015919;28;20140;-75
2023/12/15 02:09:30;;;;;;;6.38;4.05;;;4.80;67.20;;;;;;5016063;28;20085;-75
2023/12/15 02:11:56;;;;;;;5.50;4.20;;;4.80;67.20;;;;;;5015833;28;20033;-76
2023/12/15 02:14:23;;;;;;;5.57;4.57;;;4.80;67.20;;;;;;5013698;28;20045;-75
2023/12/15 02:16:48;;;;;;;8.63;4.50;;;4.80;67.10;;;;;;5015521;28;20029;-74
2023/12/15 02:19:14;;;;;;;5.60;4.53;;;4.80;67.20;;;;;;5014888;28;20464;-74
2023/12/15 02:21:40;;;;;;;5.63;4.55;;;4.80;67.20;;;;;;5012813;28;20034;-75
2023/12/15 02:24:06;;;;;;;5.75;4.30;;;4.80;67.10;;;;;;5015623;28;20394;-75
2023/12/15 02:26:32;;;;;;;5.35;4.15;;;4.80;67.00;;;;;;5014765;28;20065;-74
2023/12/15 02:28:58;;;;;;;4.95;4.45;;;4.80;67.00;;;;;;5014329;28;20116;-76
2023/12/15 02:31:24;;;;;;;6.60;4.68;;;4.80;67.00;;;;;;5015714;28;20398;-74
2023/12/15 02:33:53;;;;;;;7.45;4.47;;;4.80;67.00;;;;;;5008815;28;20041;-75
2023/12/15 02:36:19;;;;;;;6.72;4.55;;;4.80;66.90;;;;;;5012362;28;20129;-75
2023/12/15 02:38:45;;;;;;;5.05;4.25;;;4.70;66.80;;;;;;5014444;28;20033;-76
2023/12/15 02:41:11;;;;;;;6.75;4.90;;;4.70;66.80;;;;;;5015905;28;20033;-76
2023/12/15 02:43:38;;;;;;;7.47;4.35;;;4.70;66.80;;;;;;5049028;28;20057;-76
2023/12/15 02:46:04;;;;;;;6.43;4.30;;;4.70;66.80;;;;;;5014961;28;20034;-75
2023/12/15 02:48:30;;;;;;;6.63;4.70;;;4.70;66.80;;;;;;5024194;28;20029;-75
2023/12/15 02:50:56;;;;;;;6.47;4.90;;;4.70;66.80;;;;;;5015402;28;20055;-75
2023/12/15 02:53:22;;;;;;;8.00;5.30;;;4.70;66.80;;;;;;5031274;28;20112;-75
2023/12/15 02:55:49;;;;;;;5.32;4.18;;;4.70;66.60;;;;;;5015094;28;20406;-74
2023/12/15 02:58:15;;;;;;;5.95;4.80;;;4.70;66.60;;;;;;5033159;28;20034;-75
2023/12/15 03:00:41;;;;;;;5.78;4.30;;;4.60;66.40;;;;;;5031909;28;20037;-76
2023/12/15 03:03:07;;;;;;;4.53;3.88;;;4.60;66.50;;;;;;5015687;28;20030;-75
2023/12/15 03:05:33;;;;;;;5.80;4.80;;;4.50;66.50;;;;;;5025090;28;20060;-75
2023/12/15 03:07:59;;;;;;;10.07;4.85;;;4.50;66.50;;;;;;5002675;28;20034;-76
2023/12/15 03:10:24;;;;;;;5.47;4.30;;;4.60;66.60;;;;;;5013711;28;20026;-75
2023/12/15 03:12:50;;;;;;;8.15;4.50;;;4.60;66.60;;;;;;5015570;28;20026;-75
2023/12/15 03:15:16;;;;;;;6.60;4.10;;;4.60;66.50;;;;;;5015193;28;20394;-75
2023/12/15 03:17:42;;;;;;;6.75;4.43;;;4.60;66.50;;;;;;5032220;28;20033;-74
2023/12/15 03:20:08;;;;;;;6.13;4.53;;;4.60;66.50;;;;;;5018392;28;20525;-74
2023/12/15 03:22:34;;;;;;;6.22;4.82;;;4.60;66.30;;;;;;5031798;28;20030;-75
2023/12/15 03:25:00;;;;;;;7.30;4.38;;;4.60;66.30;;;;;;5037313;28;20498;-75
2023/12/15 03:27:26;;;;;;;5.63;4.20;;;4.50;66.20;;;;;;5018805;28;20109;-75
2023/12/15 03:29:51;;;;;;;7.43;4.60;;;4.60;66.70;;;;;;5015460;28;20083;-75
2023/12/15 03:32:17;;;;;;;5.97;4.30;;;4.50;66.10;;;;;;5019283;28;20088;-75
2023/12/15 03:34:43;;;;;;;4.85;4.00;;;4.50;66.20;;;;;;5018329;28;20087;-75
2023/12/15 03:37:09;;;;;;;4.93;3.63;;;4.50;66.20;;;;;;5017770;28;20391;-75
2023/12/15 03:39:35;;;;;;;5.65;3.72;;;4.50;66.20;;;;;;5017245;28;20425;-76
2023/12/15 03:42:06;;;;;;;4.50;3.83;;;4.50;66.20;;;;;;5017539;28;20026;-75
2023/12/15 03:44:33;;;;;;;6.00;4.20;;;4.50;66.20;;;;;;5018632;28;20038;-74
2023/12/15 03:46:59;;;;;;;5.53;4.00;;;4.50;66.20;;;;;;5014152;28;20026;-75
2023/12/15 03:49:25;;;;;;;4.57;3.70;;;4.50;66.00;;;;;;5036009;28;20064;-74
2023/12/15 03:51:50;;;;;;;5.00;4.00;;;4.40;66.00;;;;;;5036157;28;20480;-75
2023/12/15 03:54:16;;;;;;;6.22;4.22;;;4.40;66.00;;;;;;5014603;28;20484;-74
2023/12/15 03:56:42;;;;;;;5.53;4.10;;;4.40;66.10;;;;;;5031782;28;20040;-74
2023/12/15 03:59:08;;;;;;;5.93;4.22;;;4.40;66.10;;;;;;5013559;28;20033;-75
2023/12/15 04:01:33;;;;;;;5.50;3.97;;;4.40;66.10;;;;;;5017455;28;20030;-76
2023/12/15 04:03:59;;;;;;;6.28;3.92;;;4.40;66.10;;;;;;5017222;28;20038;-75
2023/12/15 04:06:25;;;;;;;4.78;4.25;;;4.40;66.00;;;;;;5035409;28;20026;-74
2023/12/15 04:08:51;;;;;;;4.35;3.55;;;4.40;66.10;;;;;;5011390;28;20081;-75
2023/12/15 04:11:17;;;;;;;4.95;3.58;;;4.40;66.10;;;;;;5018540;28;20545;-75
2023/12/15 04:13:43;;;;;;;6.10;4.07;;;4.40;66.00;;;;;;5018691;28;20414;-75
2023/12/15 04:16:09;;;;;;;5.55;3.90;;;4.40;66.00;;;;;;5029973;28;20175;-75
2023/12/15 04:18:34;;;;;;;4.50;3.70;;;4.50;66.00;;;;;;5018141;28;20026;-75
2023/12/15 04:21:03;;;;;;;6.95;4.28;;;4.50;65.90;;;;;;5014635;28;20029;-74
2023/12/15 04:23:29;;;;;;;6.18;4.70;;;4.40;65.70;;;;;;5018291;28;20031;-74
2023/12/15 04:25:58;;;;;;;5.70;4.38;;;4.40;65.70;;;;;;5016710;28;20052;-75
2023/12/15 04:28:27;;;;;;;6.75;4.30;;;4.40;65.70;;;;;;5017855;28;20044;-76
2023/12/15 04:30:53;;;;;;;10.10;4.28;;;4.40;65.70;;;;;;5017630;28;20025;-75
2023/12/15 04:33:18;;;;;;;5.35;4.20;;;4.40;65.80;;;;;;5018015;28;20036;-74
2023/12/15 04:35:44;;;;;;;8.43;4.53;;;4.30;65.80;;;;;;5033278;28;20041;-75
2023/12/15 04:38:10;;;;;;;5.85;4.32;;;4.40;65.90;;;;;;5035641;28;20040;-75
2023/12/15 04:40:36;;;;;;;5.43;4.30;;;4.40;65.90;;;;;;5031695;28;20395;-76
2023/12/15 04:43:01;;;;;;;4.95;4.07;;;4.40;65.90;;;;;;5018228;28;20537;-76
2023/12/15 04:45:27;;;;;;;5.93;4.90;;;4.40;65.80;;;;;;5018747;28;20029;-74
2023/12/15 04:47:54;;;;;;;5.82;4.20;;;4.50;65.90;;;;;;5034564;28;20026;-74
2023/12/15 04:50:20;;;;;;;4.93;4.10;;;4.40;65.70;;;;;;5032372;28;20467;-74
2023/12/15 04:52:46;;;;;;;7.05;4.30;;;4.50;65.70;;;;;;5030889;28;20042;-75
2023/12/15 04:55:12;;;;;;;5.57;4.05;;;4.50;65.60;;;;;;4997831;28;20464;-75
2023/12/15 04:57:38;;;;;;;5.63;4.70;;;4.50;65.60;;;;;;4997977;28;20129;-76
2023/12/15 05:00:05;;;;;;;6.55;4.78;;;4.40;65.60;;;;;;4998034;28;20116;-75
2023/12/15 05:02:30;;;;;;;5.75;4.47;;;4.40;65.50;;;;;;4997613;28;20030;-74
2023/12/15 05:04:56;;;;;;;6.80;4.32;;;4.40;65.50;;;;;;4997814;28;20029;-75
2023/12/15 05:07:22;;;;;;;5.22;3.95;;;4.40;65.60;;;;;;4997972;28;20501;-74
2023/12/15 05:09:48;;;;;;;6.63;4.50;;;4.40;65.70;;;;;;4997847;28;20033;-76
2023/12/15 05:12:14;;;;;;;6.68;4.75;;;4.40;65.50;;;;;;5023071;28;20092;-75
2023/12/15 05:14:39;;;;;;;5.32;4.07;;;4.30;65.40;;;;;;5017530;28;20503;-75
2023/12/15 05:17:05;;;;;;;5.22;4.13;;;4.30;65.40;;;;;;5016794;28;20087;-75
2023/12/15 05:19:31;;;;;;;5.05;4.10;;;4.30;65.50;;;;;;4997241;28;20494;-75
2023/12/15 05:21:57;;;;;;;4.65;3.90;;;4.30;65.50;;;;;;5001989;28;20131;-75
2023/12/15 05:24:23;;;;;;;6.50;4.57;;;4.20;65.40;;;;;;4997138;28;20026;-75
2023/12/15 05:26:48;;;;;;;7.95;4.25;;;4.20;65.40;;;;;;4998224;28;20030;-76
2023/12/15 05:29:14;;;;;;;6.32;4.40;;;4.10;65.40;;;;;;4996991;28;20014;-75
2023/12/15 05:31:44;;;;;;;5.63;4.15;;;4.10;65.40;;;;;;5009915;28;20471;-75
2023/12/15 05:34:10;;;;;;;6.20;4.70;;;4.10;65.40;;;;;;5006412;28;20453;-74
2023/12/15 05:36:35;;;;;;;6.47;5.00;;;4.10;65.50;;;;;;4997221;28;20117;-76
2023/12/15 05:39:02;;;;;;;10.45;4.85;;;4.00;65.50;;;;;;4996414;28;20022;-75
2023/12/15 05:41:28;;;;;;;5.95;4.57;;;4.00;65.40;;;;;;5003412;28;20033;-75
2023/12/15 05:43:54;;;;;;;6.90;4.47;;;4.00;65.40;;;;;;4997640;28;20032;-75
2023/12/15 05:46:20;;;;;;;6.80;4.78;;;4.00;65.40;;;;;;4997263;28;20033;-75
2023/12/15 05:48:46;;;;;;;4.78;3.90;;;4.00;65.40;;;;;;4996693;28;20022;-75
2023/12/15 05:51:11;;;;;;;5.35;4.18;;;4.00;65.30;;;;;;4997055;28;20034;-74
2023/12/15 05:53:37;;;;;;;5.88;4.07;;;4.00;65.40;;;;;;5007506;28;20490;-75
2023/12/15 05:56:04;;;;;;;6.30;4.05;;;3.90;65.30;;;;;;5006291;28;20055;-75
2023/12/15 05:58:29;;;;;;;5.97;4.10;;;3.90;65.30;;;;;;5030743;28;20037;-75
2023/12/15 06:00:55;;;;;;;5.18;3.92;;;4.00;65.40;;;;;;5006472;28;20072;-75
2023/12/15 06:03:21;;;;;;;4.68;3.67;;;4.00;65.30;;;;;;5001077;28;20154;-74
2023/12/15 06:05:47;;;;;;;4.40;3.50;;;4.00;65.20;;;;;;5025052;28;20087;-74
2023/12/15 06:08:13;;;;;;;4.80;4.32;;;4.00;65.10;;;;;;5015530;28;20030;-76
2023/12/15 06:10:41;;;;;;;7.05;3.92;;;4.00;65.10;;;;;;4998552;28;20034;-75
2023/12/15 06:13:06;;;;;;;4.53;3.35;;;3.90;65.00;;;;;;5012202;28;20115;-75
2023/12/15 06:15:32;;;;;;;4.60;3.42;;;3.90;64.90;;;;;;5017017;28;20065;-76
2023/12/15 06:17:58;;;;;;;5.20;3.47;;;3.90;64.90;;;;;;5012196;28;20041;-75
2023/12/15 06:20:24;;;;;;;5.75;3.63;;;3.90;64.80;;;;;;5007908;28;20080;-75
2023/12/15 06:22:51;;;;;;;4.93;3.75;;;3.80;64.70;;;;;;4997707;28;20034;-75
2023/12/15 06:25:17;;;;;;;4.25;3.22;;;3.80;64.80;;;;;;5024036;28;20037;-76
2023/12/15 06:27:42;;;;;;;7.13;3.50;;;3.80;64.80;;;;;;5017050;28;20021;-75
2023/12/15 06:30:08;;;;;;;4.68;3.50;;;3.80;64.80;;;;;;5006714;28;20454;-76
2023/12/15 06:32:35;;;;;;;4.32;3.22;;;3.80;64.80;;;;;;5011279;28;20467;-78
2023/12/15 06:35:01;;;;;;;5.70;3.80;;;3.80;64.80;;;;;;5012661;28;20033;-78
2023/12/15 06:37:27;;;;;;;4.85;3.90;;;3.80;64.80;;;;;;5013881;28;20044;-79
2023/12/15 06:39:53;;;;;;;5.45;3.85;;;3.80;64.80;;;;;;5006902;28;20084;-72
2023/12/15 06:42:19;;;;;;;5.55;3.42;;;3.70;64.70;;;;;;5028282;28;20036;-75
2023/12/15 06:44:46;;;;;;;6.30;3.63;;;3.80;64.80;;;;;;5016783;28;20026;-76
2023/12/15 06:47:13;;;;;;;5.32;3.60;;;3.80;64.80;;;;;;5021145;28;20025;-78
2023/12/15 06:49:39;;;;;;;5.70;3.65;;;3.80;64.80;;;;;;5021651;28;20026;-76
2023/12/15 06:52:05;;;;;;;7.43;3.90;;;3.80;64.80;;;;;;5002305;28;20033;-77
2023/12/15 06:54:31;;;;;;;5.15;3.88;;;3.80;64.70;;;;;;5029097;28;20030;-79
2023/12/15 06:56:57;;;;;;;5.13;3.53;;;3.90;64.70;;;;;;4996243;28;20042;-72
2023/12/15 06:59:22;;;;;;;5.28;3.70;;;3.90;64.60;;;;;;4995881;28;20034;-76
2023/12/15 07:01:48;;;;;;;7.25;4.10;;;3.80;64.60;;;;;;4994972;28;20113;-76
2023/12/15 07:04:14;;;;;;;4.55;3.55;;;3.90;64.60;;;;;;4993919;28;20026;-76
2023/12/15 07:06:40;;;;;;;4.90;3.90;;;3.90;64.50;;;;;;5011553;28;20518;-78
2023/12/15 07:09:05;;;;;;;5.35;3.20;;;3.90;64.60;;;;;;5010740;28;20033;-77
2023/12/15 07:11:31;;;;;;;5.85;3.50;;;4.00;64.60;;;;;;4992221;28;20026;-73
2023/12/15 07:13:57;;;;;;;4.53;3.25;;;4.00;64.50;;;;;;5018256;28;20395;-73
2023/12/15 07:16:22;;;;;;;5.25;3.50;;;4.00;64.30;;;;;;4994771;28;20467;-80
2023/12/15 07:18:48;;;;;;;7.72;4.13;;;4.00;64.30;;;;;;4986792;28;20034;-75
2023/12/15 07:21:14;;;;;;;5.30;3.30;;;4.00;64.40;;;;;;4995655;28;20028;-74
2023/12/15 07:23:39;;;;;;;4.97;3.95;;;4.00;64.40;;;;;;4991223;28;20034;-76
2023/12/15 07:26:05;;;;;;;5.18;3.45;;;4.00;64.40;;;;;;5012731;28;20113;-75
2023/12/15 07:28:31;;;;;;;3.95;3.35;;;4.00;64.30;;;;;;4995695;28;20025;-77
2023/12/15 07:30:57;;;;;;;5.18;3.45;;;4.10;64.30;;;;;;5012330;28;20033;-74
2023/12/15 07:33:23;;;;;;;4.55;3.50;;;4.00;64.20;;;;;;4992523;28;20079;-75
2023/12/15 07:35:48;;;;;;;5.82;3.53;;;4.10;64.10;;;;;;4984864;28;20116;-76
2023/12/15 07:38:14;;;;;;;6.05;3.33;;;4.00;64.00;;;;;;4995716;28;20041;-73
2023/12/15 07:40:40;;;;;;;6.28;3.80;;;4.10;64.10;;;;;;5011502;28;20375;-75
2023/12/15 07:43:06;;;;;;;5.13;3.47;;;4.10;64.10;;;;;;4989834;28;20027;-73
2023/12/15 07:45:32;;;;;;;5.07;3.70;;;4.10;64.20;;;;;;4989642;28;20372;-78
2023/12/15 07:47:58;;;;;;;5.97;4.00;;;4.10;64.20;;;;;;4986199;28;20425;-77
2023/12/15 07:50:24;;;;;;;4.57;3.60;;;4.10;64.10;;;;;;5003148;28;20034;-77
2023/12/15 07:52:50;;;;;;;4.15;3.25;;;4.20;64.20;;;;;;5024962;28;20129;-76
2023/12/15 07:55:17;;;;;;;5.72;3.50;;;4.30;64.20;;;;;;5022719;28;20033;-76
2023/12/15 07:57:43;;;;;;;7.25;3.75;;;4.30;64.10;;;;;;5008448;28;20096;-77
2023/12/15 08:00:12;;;;;;;4.00;2.97;;;4.30;64.10;;;;;;5023185;28;20439;-76
2023/12/15 08:02:38;;;;;;;4.50;3.50;;;4.40;64.00;;;;;;5023142;28;20037;-76
2023/12/15 08:05:04;;;;;;;3.97;3.20;;;4.50;64.00;;;;;;5023945;28;20101;-78
2023/12/15 08:07:30;;;;;;;7.45;3.45;;;4.60;64.00;;;;;;5009450;28;20029;-76
2023/12/15 08:09:56;;;;;;;3.65;3.08;;;4.60;63.80;;;;;;5024637;28;20487;-76
2023/12/15 08:12:22;;;;;;;5.03;3.25;;;4.70;63.80;;;;;;5023904;28;20084;-77
2023/12/15 08:14:48;;;;;;;6.45;3.55;;;4.70;63.70;;;;;;5007655;28;20033;-77
2023/12/15 08:17:14;;;;;;;6.25;3.20;;;4.90;63.70;;;;;;5031406;28;20048;-77
2023/12/15 08:19:40;;;;;;;7.60;3.60;;;4.90;63.50;;;;;;5007988;28;20033;-76
2023/12/15 08:22:06;;;;;;;4.40;3.47;;;4.90;63.40;;;;;;5009000;28;20030;-77
2023/12/15 08:24:32;;;;;;;5.47;3.03;;;4.90;64.00;;;;;;5004267;28;20121;-77
2023/12/15 08:26:58;;;;;;;4.53;3.25;;;5.00;63.40;;;;;;5010928;28;20026;-76
2023/12/15 08:29:24;;;;;;;4.72;3.40;;;5.00;63.40;;;;;;5008067;28;20387;-75
2023/12/15 08:31:50;;;;;;;4.55;3.03;;;5.00;63.30;;;;;;5024858;28;20044;-79
2023/12/15 08:34:16;;;;;;;3.97;3.22;;;5.10;63.30;;;;;;5027171;28;20033;-78
2023/12/15 08:36:43;;;;;;;5.18;3.40;;;5.10;63.30;;;;;;5025441;28;20037;-77
2023/12/15 08:39:09;;;;;;;6.70;3.50;;;5.20;63.10;;;;;;5006992;28;20497;-76
2023/12/15 08:41:35;;;;;;;4.78;3.45;;;5.20;63.00;;;;;;5007932;28;20460;-78
2023/12/15 08:44:01;;;;;;;6.65;3.40;;;5.20;63.00;;;;;;5005701;28;20030;-77
2023/12/15 08:46:27;;;;;;;4.68;3.60;;;5.20;63.10;;;;;;5007907;28;20513;-77
2023/12/15 08:48:53;;;;;;;5.40;3.40;;;5.20;63.10;;;;;;5007837;28;20030;-75
2023/12/15 08:51:19;;;;;;;6.15;3.85;;;5.10;62.90;;;;;;5008793;28;20080;-76
2023/12/15 08:53:45;;;;;;;6.75;3.83;;;5.10;63.00;;;;;;5035516;28;20491;-77
2023/12/15 08:56:10;;;;;;;7.32;3.45;;;5.10;63.00;;;;;;5007493;28;20047;-77
2023/12/15 08:58:37;;;;;;;5.65;3.65;;;5.10;63.10;;;;;;5035359;28;20088;-78
2023/12/15 09:01:03;;;;;;;5.20;3.50;;;5.10;63.10;;;;;;5034719;28;20033;-80
2023/12/15 09:03:29;;;;;;;5.25;3.20;;;5.10;63.00;;;;;;5017083;28;20036;-76
2023/12/15 09:05:55;;;;;;;5.00;3.40;;;5.10;63.10;;;;;;5034654;28;20026;-76
2023/12/15 09:08:21;;;;;;;4.07;3.40;;;5.10;63.10;;;;;;5012396;28;20025;-76
2023/12/15 09:10:50;;;;;;;3.30;2.97;;;5.10;63.10;;;;;;5017714;28;20068;-77
2023/12/15 09:13:17;;;;;;;3.72;3.33;;;5.10;63.10;;;;;;5017755;28;20025;-77
2023/12/15 09:15:43;;;;;;;5.13;3.30;;;5.20;63.00;;;;;;5016957;28;20033;-78
2023/12/15 09:18:09;;;;;;;9.27;3.72;;;5.20;63.00;;;;;;5017239;28;20037;-76
2023/12/15 09:20:37;;;;;;;5.15;3.22;;;5.20;63.00;;;;;;5034700;28;20037;-77
2023/12/15 09:23:09;;;;;;;4.07;3.38;;;5.20;63.00;;;;;;5009086;28;20538;-78
2023/12/15 09:25:36;;;;;;;5.47;3.58;;;5.20;63.00;;;;;;5003524;28;20048;-78
2023/12/15 09:28:05;;;;;;;3.65;3.00;;;5.30;62.90;;;;;;5015453;28;20032;-78
2023/12/15 09:30:31;;;;;;;4.03;3.40;;;5.30;62.80;;;;;;5016758;28;20033;-77
2023/12/15 09:32:57;;;;;;;3.45;2.90;;;5.40;62.90;;;;;;5015317;28;20030;-76
2023/12/15 09:35:24;;;;;;;4.00;3.08;;;5.30;62.70;;;;;;5017457;28;20044;-78
2023/12/15 09:37:49;;;;;;;4.18;3.10;;;5.40;62.70;;;;;;5035047;28;20026;-77
2023/12/15 09:40:21;;;;;;;5.53;3.42;;;5.30;62.50;;;;;;5018010;28;20021;-77
2023/12/15 09:42:47;;;;;;;4.80;3.03;;;5.30;62.50;;;;;;5017870;28;20453;-79
2023/12/15 09:45:13;;;;;;;4.40;3.00;;;5.30;62.50;;;;;;5034367;28;20045;-77
2023/12/15 09:47:44;;;;;;;5.32;3.42;;;5.30;62.50;;;;;;5023399;28;20084;-78
2023/12/15 09:50:12;;;;;;;5.05;3.10;;;5.30;62.50;;;;;;5026480;28;20454;-77
2023/12/15 09:52:42;;;;;;;5.80;3.45;;;5.30;62.50;;;;;;5014790;28;20049;-79
2023/12/15 09:55:09;;;;;;;4.85;3.13;;;5.30;62.50;;;;;;5034527;28;20037;-78
2023/12/15 09:57:36;;;;;;;4.28;2.90;;;5.30;62.50;;;;;;5000314;28;20034;-77
2023/12/15 10:00:03;;;;;;;4.90;3.10;;;5.30;62.50;;;;;;5017289;28;20379;-77
2023/12/15 10:02:28;;;;;;;3.65;2.72;;;5.20;62.50;;;;;;5028606;28;20029;-77
2023/12/15 10:04:54;;;;;;;4.22;2.78;;;5.20;62.50;;;;;;5016603;28;20167;-78
2023/12/15 10:07:20;;;;;;;6.65;3.53;;;5.20;62.50;;;;;;5014935;28;20025;-77
2023/12/15 10:09:47;;;;;;;5.55;3.40;;;5.20;62.50;;;;;;5016499;28;20179;-78
2023/12/15 10:12:12;;;;;;;3.38;2.70;;;5.20;62.50;;;;;;5049475;28;20029;-77
2023/12/15 10:14:38;;;;;;;4.90;3.15;;;5.20;62.60;;;;;;5027124;28;20063;-77
2023/12/15 10:17:10;;;;;;;5.07;3.33;;;5.20;62.60;;;;;;5016321;28;20029;-79
2023/12/15 10:19:35;;;;;;;3.33;2.60;;;5.20;62.60;;;;;;5016703;28;20031;-77
2023/12/15 10:22:02;;;;;;;3.88;3.28;;;5.20;62.60;;;;;;5016429;28;20367;-78
2023/12/15 10:24:28;;;;;;;4.07;2.90;;;5.20;62.50;;;;;;5016031;28;20121;-77
2023/12/15 10:26:54;;;;;;;5.05;3.20;;;5.20;62.50;;;;;;5016348;28;20105;-79
2023/12/15 10:29:21;;;;;;;4.38;3.30;;;5.30;62.60;;;;;;5012451;28;20030;-76
2023/12/15 10:31:51;;;;;;;4.45;3.05;;;5.30;62.60;;;;;;5029929;28;20035;-77
2023/12/15 10:34:17;;;;;;;3.97;3.10;;;5.30;62.60;;;;;;5015975;28;20034;-77
2023/12/15 10:36:46;;;;;;;6.45;3.17;;;5.30;62.60;;;;;;5015921;28;20040;-77
2023/12/15 10:39:13;;;;;;;6.72;3.60;;;5.30;62.50;;;;;;5033069;28;20450;-77
2023/12/15 10:41:40;;;;;;;5.72;3.45;;;5.30;62.50;;;;;;5033689;28;20367;-78
2023/12/15 10:44:06;;;;;;;6.68;4.00;;;5.30;62.60;;;;;;5016102;28;20418;-78
2023/12/15 10:46:33;;;;;;;4.75;3.60;;;5.40;62.40;;;;;;5033796;28;20091;-78
2023/12/15 10:49:00;;;;;;;6.45;4.10;;;5.30;62.40;;;;;;5015686;28;20033;-77
2023/12/15 10:51:26;;;;;;;5.72;3.70;;;5.30;62.40;;;;;;5015685;28;20022;-78
2023/12/15 10:53:56;;;;;;;6.10;4.10;;;5.30;62.40;;;;;;5033191;28;20049;-78
2023/12/15 10:56:23;;;;;;;4.50;3.65;;;5.30;62.50;;;;;;5008549;28;20179;-77
2023/12/15 10:58:49;;;;;;;4.63;3.50;;;5.20;62.50;;;;;;5033735;28;20041;-77
2023/12/15 11:01:16;;;;;;;5.30;3.95;;;5.20;62.60;;;;;;5015928;28;20116;-78
2023/12/15 11:03:42;;;;;;;4.32;3.65;;;5.20;62.60;;;;;;5015795;28;20040;-78
2023/12/15 11:06:09;;;;;;;4.57;3.50;;;5.20;62.50;;;;;;5015565;28;20376;-78
2023/12/15 11:08:35;;;;;;;5.88;3.65;;;5.20;62.60;;;;;;5016218;28;20060;-78
2023/12/15 11:11:07;;;;;;;4.35;3.35;;;5.20;62.60;;;;;;5015287;28;20471;-78
2023/12/15 11:14:01;;;;;;;4.88;3.78;;;5.20;62.50;;;;;;5048951;28;20471;-77
2023/12/15 11:16:31;;;;;;;4.90;3.22;;;5.20;62.50;;;;;;5015370;28;20097;-79
2023/12/15 11:18:59;;;;;;;5.00;3.40;;;5.20;62.50;;;;;;5014597;28;20379;-78
2023/12/15 11:21:25;;;;;;;4.10;3.20;;;5.10;62.50;;;;;;5012467;28;20032;-78
2023/12/15 11:23:57;;;;;;;4.22;3.10;;;5.10;63.20;;;;;;5015791;28;20085;-77
2023/12/15 11:26:31;;;;;;;4.88;3.95;;;5.10;62.60;;;;;;5007185;28;20029;-78
2023/12/15 11:29:08;;;;;;;4.05;3.28;;;5.00;62.60;;;;;;5033506;28;20022;-79
2023/12/15 11:31:35;;;;;;;5.20;2.90;;;5.00;62.60;;;;;;5033219;28;20041;-78
2023/12/15 11:34:03;;;;;;;5.15;3.17;;;5.00;62.70;;;;;;5015206;28;20401;-78
2023/12/15 11:36:30;;;;;;;5.30;3.20;;;5.00;62.70;;;;;;5013219;28;20034;-78
2023/12/15 11:38:58;;;;;;;3.70;3.10;;;5.00;62.80;;;;;;5015337;28;20025;-78
2023/12/15 11:41:24;;;;;;;4.60;3.50;;;5.00;62.90;;;;;;5036677;28;20112;-79
2023/12/15 11:43:51;;;;;;;4.20;3.50;;;5.00;63.00;;;;;;5010246;28;20026;-77
2023/12/15 11:46:20;;;;;;;5.72;3.55;;;5.00;63.00;;;;;;5036896;28;20030;-78
2023/12/15 11:48:46;;;;;;;4.95;3.30;;;5.00;62.90;;;;;;5016433;28;20030;-77
2023/12/15 11:51:12;;;;;;;4.00;3.58;;;5.00;63.00;;;;;;5036411;28;20084;-77
2023/12/15 11:53:42;;;;;;;4.22;3.25;;;5.00;63.10;;;;;;5017910;28;20091;-78
2023/12/15 11:56:11;;;;;;;3.50;2.95;;;5.00;63.10;;;;;;5018485;28;20049;-78
2023/12/15 11:58:37;;;;;;;4.45;3.20;;;5.10;63.00;;;;;;5018869;28;20060;-78
2023/12/15 12:01:03;;;;;;;4.40;3.15;;;5.10;62.90;;;;;;5018854;28;20394;-77
2023/12/15 12:03:32;;;;;;;5.40;3.40;;;5.10;62.90;;;;;;5036420;28;20033;-77
2023/12/15 12:06:05;;;;;;;4.97;3.72;;;5.10;62.90;;;;;;5036780;28;20040;-78
2023/12/15 12:08:33;;;;;;;3.50;3.20;;;5.10;62.80;;;;;;5035661;28;20044;-79
2023/12/15 12:10:59;;;;;;;5.63;3.35;;;5.20;62.90;;;;;;5002654;28;20021;-78
2023/12/15 12:13:37;;;;;;;4.07;3.08;;;5.20;62.90;;;;;;5018518;28;20029;-78
2023/12/15 12:16:04;;;;;;;4.32;3.15;;;5.20;62.80;;;;;;5036339;28;20244;-77
2023/12/15 12:18:31;;;;;;;7.00;3.30;;;5.20;62.80;;;;;;5018589;28;20038;-77
2023/12/15 12:21:01;;;;;;;4.85;3.15;;;5.20;62.80;;;;;;5036128;28;20029;-78
2023/12/15 12:23:27;;;;;;;4.85;3.60;;;5.20;62.70;;;;;;5018104;28;20049;-78
2023/12/15 12:25:55;;;;;;;3.88;3.10;;;5.20;62.80;;;;;;5035240;28;20044;-77
2023/12/15 12:28:22;;;;;;;4.03;3.60;;;5.20;62.80;;;;;;5035344;28;20029;-77
2023/12/15 12:30:48;;;;;;;4.40;3.25;;;5.20;62.80;;;;;;5018189;28;20033;-77
2023/12/15 12:33:14;;;;;;;4.50;3.42;;;5.30;62.90;;;;;;5035624;28;20030;-78
2023/12/15 12:35:40;;;;;;;3.70;3.10;;;5.30;62.90;;;;;;5017366;28;20046;-79
2023/12/15 12:38:09;;;;;;;3.70;3.30;;;5.30;62.80;;;;;;5017991;28;20482;-78
2023/12/15 12:40:35;;;;;;;5.57;3.67;;;5.30;62.90;;;;;;5036334;28;20490;-78
2023/12/15 12:43:01;;;;;;;4.18;3.28;;;5.30;62.80;;;;;;5018138;28;20107;-78
2023/12/15 12:45:28;;;;;;;3.65;3.35;;;5.30;62.80;;;;;;5018640;28;20112;-77
2023/12/15 12:47:54;;;;;;;4.78;3.20;;;5.30;62.80;;;;;;5035960;28;20398;-77
2023/12/15 12:50:21;;;;;;;3.78;3.30;;;5.40;62.80;;;;;;5035128;28;20025;-78
2023/12/15 12:52:48;;;;;;;4.03;3.33;;;5.30;62.80;;;;;;5018382;28;20073;-78